createdAt,value
2023-03-26T00:02:17.637Z,61.21
2023-03-26T00:04:47.770Z,61.29
2023-03-26T00:07:19.029Z,61.16
2023-03-26T00:09:49.121Z,60.93
2023-03-26T00:12:19.226Z,60.95
2023-03-26T00:14:55.400Z,61.26
2023-03-26T00:17:25.526Z,61.30
2023-03-26T00:19:57.287Z,61.33
2023-03-26T00:22:27.301Z,61.16
2023-03-26T00:24:59.548Z,61.02
2023-03-26T00:27:29.735Z,60.30
2023-03-26T00:30:04.206Z,60.72
2023-03-26T00:32:34.495Z,60.35
2023-03-26T00:35:08.842Z,60.13
2023-03-26T00:37:38.815Z,60.21
2023-03-26T00:40:13.608Z,60.15
2023-03-26T00:42:43.627Z,59.88
2023-03-26T00:45:17.344Z,59.87
2023-03-26T00:47:47.678Z,59.70
2023-03-26T00:50:19.966Z,59.72
2023-03-26T00:52:55.917Z,59.58
2023-03-26T00:55:26.152Z,59.51
2023-03-26T00:57:56.524Z,59.59
2023-03-26T01:00:35.048Z,59.37
2023-03-26T01:03:06.165Z,59.20
2023-03-26T01:05:51.642Z,59.07
2023-03-26T01:08:30.825Z,58.70
2023-03-26T01:11:07.734Z,58.60
2023-03-26T01:13:42.280Z,58.49
2023-03-26T01:16:25.431Z,58.83
2023-03-26T01:18:59.028Z,58.80
2023-03-26T01:21:34.851Z,58.69
2023-03-26T01:24:09.345Z,58.52
2023-03-26T01:27:04.527Z,58.70
2023-03-26T01:29:39.466Z,58.25
2023-03-26T01:32:21.842Z,58.43
2023-03-26T01:35:03.222Z,58.51
2023-03-26T01:37:42.805Z,58.76
2023-03-26T01:40:24.146Z,59.12
2023-03-26T01:43:01.655Z,59.39
2023-03-26T01:45:34.930Z,59.74
2023-03-26T01:48:05.908Z,59.76
2023-03-26T01:50:36.262Z,59.71
2023-03-26T01:53:07.021Z,59.82
2023-03-26T01:55:53.991Z,60.07
2023-03-26T01:58:34.439Z,59.75
2023-03-26T02:01:17.004Z,59.40
2023-03-26T02:03:53.602Z,59.30
2023-03-26T02:06:30.987Z,59.47
2023-03-26T02:09:04.718Z,59.22
2023-03-26T02:11:38.439Z,59.44
2023-03-26T02:14:10.012Z,59.03
2023-03-26T02:16:40.272Z,59.05
2023-03-26T02:19:15.949Z,58.90
2023-03-26T02:21:49.518Z,58.79
2023-03-26T02:24:20.348Z,58.60
2023-03-26T02:26:54.715Z,58.59
2023-03-26T02:29:27.102Z,58.75
2023-03-26T02:31:57.903Z,59.39
2023-03-26T02:34:28.072Z,59.35
2023-03-26T02:36:58.052Z,59.51
2023-03-26T02:39:29.982Z,59.84
2023-03-26T02:42:10.241Z,60.26
2023-03-26T02:44:47.921Z,60.03
2023-03-26T02:47:23.573Z,60.16
2023-03-26T02:49:56.811Z,60.47
2023-03-26T02:52:49.944Z,60.52
2023-03-26T02:55:20.706Z,60.92
2023-03-26T02:57:54.914Z,60.90
2023-03-26T03:00:31.525Z,60.94
2023-03-26T03:03:24.469Z,61.26
2023-03-26T03:06:03.555Z,61.15
2023-03-26T03:08:39.139Z,60.97
2023-03-26T03:11:14.674Z,60.58
2023-03-26T03:13:54.016Z,60.58
2023-03-26T03:16:29.793Z,60.44
2023-03-26T03:19:03.087Z,60.58
2023-03-26T03:21:39.484Z,60.38
2023-03-26T03:24:11.964Z,60.38
2023-03-26T03:26:50.472Z,60.46
2023-03-26T03:29:41.778Z,60.48
2023-03-26T03:32:35.054Z,60.31
2023-03-26T03:35:08.145Z,60.31
2023-03-26T03:37:38.422Z,60.24
2023-03-26T03:40:11.762Z,60.26
2023-03-26T03:42:42.568Z,60.00
2023-03-26T03:45:17.209Z,60.07
2023-03-26T03:48:09.656Z,59.74
2023-03-26T03:51:01.622Z,59.33
2023-03-26T03:53:40.515Z,59.04
2023-03-26T03:56:14.847Z,59.28
2023-03-26T03:59:11.537Z,59.23
2023-03-26T04:01:46.842Z,59.20
2023-03-26T04:04:26.941Z,59.11
2023-03-26T04:07:02.267Z,59.27
2023-03-26T04:10:00.173Z,58.97
2023-03-26T04:12:34.511Z,59.33
2023-03-26T04:15:06.594Z,59.55
2023-03-26T04:17:42.968Z,59.29
2023-03-26T04:20:16.208Z,59.78
2023-03-26T04:22:49.449Z,59.65
2023-03-26T04:25:21.950Z,59.95
2023-03-26T04:28:01.314Z,59.91
2023-03-26T04:31:05.670Z,59.86
2023-03-26T04:33:50.217Z,60.30
2023-03-26T04:36:21.496Z,60.40
2023-03-26T04:38:53.764Z,60.13
2023-03-26T04:41:30.357Z,60.42
2023-03-26T04:44:05.774Z,60.35
2023-03-26T04:46:43.753Z,60.12
2023-03-26T04:49:28.424Z,59.82
2023-03-26T04:51:58.796Z,59.61
2023-03-26T04:54:48.331Z,59.77
2023-03-26T04:57:26.055Z,60.03
2023-03-26T05:00:02.993Z,59.77
2023-03-26T05:02:40.143Z,59.62
2023-03-26T05:05:13.901Z,59.77
2023-03-26T05:07:44.067Z,59.95
2023-03-26T05:10:20.398Z,60.30
2023-03-26T05:13:01.530Z,60.19
2023-03-26T05:15:36.580Z,59.79
2023-03-26T05:18:12.826Z,59.62
2023-03-26T05:20:48.456Z,59.51
2023-03-26T05:23:18.693Z,59.27
2023-03-26T05:25:55.480Z,58.95
2023-03-26T05:28:28.417Z,59.16
2023-03-26T05:31:21.521Z,59.54
2023-03-26T05:33:55.280Z,59.33
2023-03-26T05:36:28.640Z,59.34
2023-03-26T05:39:27.731Z,58.95
2023-03-26T05:42:20.822Z,58.90
2023-03-26T05:45:22.898Z,58.98
2023-03-26T05:47:55.079Z,58.96
2023-03-26T05:50:27.459Z,58.86
2023-03-26T05:53:04.976Z,58.90
2023-03-26T05:55:58.196Z,58.94
2023-03-26T05:58:54.693Z,59.15
2023-03-26T06:01:54.798Z,58.78
2023-03-26T06:05:04.547Z,58.73
2023-03-26T06:07:54.395Z,58.21
2023-03-26T06:10:27.346Z,58.34
2023-03-26T06:12:57.567Z,57.93
2023-03-26T06:15:27.770Z,58.36
2023-03-26T06:18:03.431Z,57.99
2023-03-26T06:21:12.343Z,58.61
2023-03-26T06:23:53.104Z,58.55
2023-03-26T06:26:43.804Z,58.32
2023-03-26T06:29:34.116Z,58.79
2023-03-26T06:32:19.989Z,58.75
2023-03-26T06:34:56.576Z,58.47
2023-03-26T06:37:27.418Z,58.09
2023-03-26T06:40:02.610Z,58.15
2023-03-26T06:43:07.032Z,58.30
2023-03-26T06:46:00.646Z,57.72
2023-03-26T06:48:43.587Z,58.29
2023-03-26T06:51:43.765Z,58.75
2023-03-26T06:54:13.762Z,58.34
2023-03-26T06:56:51.699Z,58.51
2023-03-26T06:59:42.766Z,57.93
2023-03-26T07:02:31.655Z,57.43
2023-03-26T07:05:20.711Z,57.28
2023-03-26T07:08:21.596Z,57.38
2023-03-26T07:11:22.488Z,56.89
2023-03-26T07:14:15.703Z,56.07
2023-03-26T07:17:17.203Z,56.26
2023-03-26T07:20:14.719Z,55.75
2023-03-26T07:22:46.254Z,54.38
2023-03-26T07:25:21.458Z,51.59
2023-03-26T07:28:20.636Z,48.35
2023-03-26T07:31:27.793Z,47.05
2023-03-26T07:34:31.437Z,46.29
2023-03-26T07:37:30.418Z,45.50
2023-03-26T07:40:31.837Z,46.68
2023-03-26T07:43:42.358Z,45.36
2023-03-26T07:46:14.667Z,45.74
2023-03-26T07:49:09.738Z,46.09
2023-03-26T07:51:57.922Z,46.42
2023-03-26T07:54:50.594Z,45.85
2023-03-26T07:57:47.704Z,46.05
2023-03-26T08:00:48.900Z,45.79
2023-03-26T08:03:53.595Z,47.00
2023-03-26T08:06:58.313Z,47.07
2023-03-26T08:10:04.695Z,48.15
2023-03-26T08:12:58.130Z,48.95
2023-03-26T08:15:38.117Z,49.49
2023-03-26T08:18:27.909Z,49.64
2023-03-26T08:21:01.963Z,49.65
2023-03-26T08:23:50.898Z,48.75
2023-03-26T08:26:33.021Z,48.99
2023-03-26T08:29:12.419Z,49.60
2023-03-26T08:31:44.852Z,49.77
2023-03-26T08:34:16.105Z,49.42
2023-03-26T08:36:48.748Z,49.53
2023-03-26T08:39:19.901Z,49.29
2023-03-26T08:42:18.294Z,49.18
2023-03-26T08:45:22.035Z,49.30
2023-03-26T08:48:26.716Z,48.20
2023-03-26T08:51:41.870Z,46.51
2023-03-26T08:54:35.033Z,47.36
2023-03-26T08:57:26.101Z,47.99
2023-03-26T09:00:18.201Z,46.56
2023-03-26T09:03:12.622Z,46.60
2023-03-26T09:06:06.211Z,46.15
2023-03-26T09:09:05.817Z,46.98
2023-03-26T09:11:55.609Z,47.88
2023-03-26T09:14:57.167Z,48.46
2023-03-26T09:17:59.652Z,49.66
2023-03-26T09:21:02.929Z,50.12
2023-03-26T09:24:04.500Z,50.48
2023-03-26T09:26:50.441Z,50.69
2023-03-26T09:29:57.740Z,50.91
2023-03-26T09:32:52.107Z,51.06
2023-03-26T09:35:41.740Z,51.21
2023-03-26T09:38:35.357Z,51.17
2023-03-26T09:41:12.903Z,51.44
2023-03-26T09:44:09.448Z,51.55
2023-03-26T09:46:58.860Z,51.78
2023-03-26T09:49:46.120Z,52.95
2023-03-26T09:52:38.403Z,53.68
2023-03-26T09:55:50.403Z,53.54
2023-03-26T09:58:36.577Z,54.57
2023-03-26T10:01:14.821Z,54.72
2023-03-26T10:03:56.579Z,54.86
2023-03-26T10:06:39.461Z,55.07
2023-03-26T10:09:23.981Z,55.28
2023-03-26T10:12:12.893Z,55.17
2023-03-26T10:14:55.391Z,55.26
2023-03-26T10:17:44.119Z,55.17
2023-03-26T10:21:00.259Z,55.19
2023-03-26T10:23:48.131Z,54.65
2023-03-26T10:26:39.495Z,54.51
2023-03-26T10:29:42.763Z,54.31
2023-03-26T10:32:23.240Z,54.35
2023-03-26T10:35:05.852Z,54.22
2023-03-26T10:37:52.737Z,54.43
2023-03-26T10:40:30.355Z,53.40
2023-03-26T10:43:34.078Z,53.15
2023-03-26T10:46:33.812Z,53.27
2023-03-26T10:49:26.780Z,53.22
2023-03-26T10:52:00.337Z,52.56
2023-03-26T10:54:43.660Z,52.42
2023-03-26T10:57:27.486Z,52.51
2023-03-26T11:00:01.059Z,53.22
2023-03-26T11:02:33.017Z,53.27
2023-03-26T11:05:28.904Z,54.05
2023-03-26T11:08:05.176Z,54.19
2023-03-26T11:10:49.505Z,53.79
2023-03-26T11:13:28.592Z,53.59
2023-03-26T11:16:06.051Z,52.83
2023-03-26T11:18:46.679Z,52.31
2023-03-26T11:21:27.344Z,52.16
2023-03-26T11:24:14.542Z,51.33
2023-03-26T11:27:15.170Z,51.23
2023-03-26T11:29:54.007Z,50.26
2023-03-26T11:32:29.095Z,49.52
2023-03-26T11:35:04.357Z,48.65
2023-03-26T11:37:38.104Z,45.68
2023-03-26T11:40:20.395Z,39.94
2023-03-26T11:42:58.953Z,36.22
2023-03-26T11:45:31.366Z,36.12
2023-03-26T11:48:11.043Z,35.79
2023-03-26T11:50:48.138Z,34.32
2023-03-26T11:53:29.198Z,32.37
2023-03-26T11:56:15.087Z,30.32
2023-03-26T11:58:54.843Z,29.19
2023-03-26T12:01:30.751Z,29.21
2023-03-26T12:04:07.336Z,31.44
2023-03-26T12:06:37.437Z,33.25
2023-03-26T12:09:18.797Z,34.39
2023-03-26T12:11:52.858Z,34.67
2023-03-26T12:14:29.046Z,34.87
2023-03-26T12:17:05.884Z,35.92
2023-03-26T12:19:40.398Z,36.00
2023-03-26T12:22:30.776Z,33.89
2023-03-26T12:25:22.389Z,30.59
2023-03-26T12:27:55.829Z,29.45
2023-03-26T12:30:31.263Z,30.38
2023-03-26T12:33:03.758Z,28.95
2023-03-26T12:35:36.047Z,27.40
2023-03-26T12:38:25.870Z,25.31
2023-03-26T12:44:44.852Z,22.98
2023-03-26T12:44:56.466Z,22.93
2023-03-26T12:47:58.100Z,23.21
2023-03-26T12:49:48.198Z,21.45
2023-03-26T12:52:38.407Z,22.49
2023-03-26T12:55:23.814Z,22.05
2023-03-26T12:58:14.072Z,22.48
2023-03-26T13:00:56.285Z,24.29
2023-03-26T13:03:46.589Z,24.04
2023-03-26T13:06:29.441Z,24.36
2023-03-26T13:09:22.710Z,25.33
2023-03-26T13:12:03.868Z,25.98
2023-03-26T13:14:51.624Z,26.69
2023-03-26T13:17:29.094Z,26.02
2023-03-26T13:20:12.657Z,26.53
2023-03-26T13:22:55.589Z,25.22
2023-03-26T13:25:34.700Z,25.63
2023-03-26T13:28:18.090Z,25.93
2023-03-26T13:30:58.171Z,26.80
2023-03-26T13:33:45.760Z,28.38
2023-03-26T13:36:25.152Z,29.00
2023-03-26T13:39:10.253Z,30.47
2023-03-26T13:42:18.886Z,31.26
2023-03-26T13:45:04.675Z,30.65
2023-03-26T13:47:48.276Z,31.36
2023-03-26T13:50:28.376Z,32.20
2023-03-26T13:53:21.549Z,34.06
2023-03-26T13:55:57.347Z,34.63
2023-03-26T13:58:35.084Z,35.07
2023-03-26T14:01:10.309Z,35.96
2023-03-26T14:03:52.642Z,36.04
2023-03-26T14:06:42.386Z,36.06
2023-03-26T14:09:22.982Z,36.13
2023-03-26T14:12:04.545Z,36.23
2023-03-26T14:14:43.601Z,35.95
2023-03-26T14:17:21.054Z,36.24
2023-03-26T14:20:24.724Z,35.79
2023-03-26T14:23:14.852Z,35.96
2023-03-26T14:26:11.622Z,35.50
2023-03-26T14:29:19.610Z,34.53
2023-03-26T14:31:59.838Z,31.27
2023-03-26T14:34:39.960Z,30.17
2023-03-26T14:37:33.122Z,30.34
2023-03-26T14:40:34.256Z,30.72
2023-03-26T14:43:34.118Z,30.85
2023-03-26T14:46:28.486Z,28.94
2023-03-26T14:49:32.776Z,29.42
2023-03-26T14:52:08.610Z,30.23
2023-03-26T14:54:43.623Z,31.41
2023-03-26T14:57:41.948Z,32.27
2023-03-26T15:00:44.582Z,32.85
2023-03-26T15:04:05.046Z,32.53
2023-03-26T15:07:07.703Z,33.54
2023-03-26T15:10:10.166Z,34.07
2023-03-26T15:13:10.270Z,34.50
2023-03-26T15:16:17.922Z,34.93
2023-03-26T15:19:32.534Z,35.58
2023-03-26T15:22:41.674Z,35.45
2023-03-26T15:25:48.615Z,35.75
2023-03-26T15:28:59.570Z,36.30
2023-03-26T15:31:48.026Z,36.55
2023-03-26T15:34:45.453Z,36.92
2023-03-26T15:37:41.457Z,36.76
2023-03-26T15:40:40.556Z,37.27
2023-03-26T15:43:17.898Z,37.36
2023-03-26T15:45:57.168Z,37.68
2023-03-26T15:48:37.709Z,37.79
2023-03-26T15:51:29.140Z,37.80
2023-03-26T15:54:08.084Z,38.10
2023-03-26T15:57:01.893Z,38.26
2023-03-26T15:59:47.647Z,38.03
2023-03-26T16:02:34.852Z,38.25
2023-03-26T16:05:30.181Z,38.47
2023-03-26T16:08:11.795Z,38.97
2023-03-26T16:10:47.010Z,38.95
2023-03-26T16:13:35.404Z,39.01
2023-03-26T16:16:26.079Z,38.98
2023-03-26T16:19:49.503Z,39.06
2023-03-26T16:22:43.404Z,39.24
2023-03-26T16:25:31.022Z,39.04
2023-03-26T16:28:30.234Z,39.28
2023-03-26T16:31:37.677Z,39.83
2023-03-26T16:34:31.589Z,39.94
2023-03-26T16:37:02.697Z,40.05
2023-03-26T16:39:43.879Z,40.32
2023-03-26T16:42:33.596Z,40.64
2023-03-26T16:45:22.132Z,40.74
2023-03-26T16:48:03.368Z,40.86
2023-03-26T16:50:47.031Z,41.34
2023-03-26T16:53:31.144Z,41.58
2023-03-26T16:56:05.674Z,41.30
2023-03-26T16:58:51.017Z,41.68
2023-03-26T17:01:34.548Z,41.18
2023-03-26T17:04:17.333Z,41.10
2023-03-26T17:07:16.886Z,41.60
2023-03-26T17:10:02.040Z,41.57
2023-03-26T17:12:40.665Z,41.82
2023-03-26T17:15:33.181Z,41.75
2023-03-26T17:18:34.665Z,41.78
2023-03-26T17:21:09.781Z,42.11
2023-03-26T17:24:04.369Z,42.28
2023-03-26T17:26:49.353Z,42.29
2023-03-26T17:29:34.727Z,42.26
2023-03-26T17:32:11.623Z,41.69
2023-03-26T17:35:04.579Z,42.01
2023-03-26T17:37:48.144Z,42.06
2023-03-26T17:40:58.980Z,42.23
2023-03-26T17:43:46.997Z,42.18
2023-03-26T17:46:33.862Z,42.41
2023-03-26T17:49:12.073Z,42.15
2023-03-26T17:51:51.676Z,42.74
2023-03-26T17:54:27.333Z,42.52
2023-03-26T17:56:59.347Z,42.74
2023-03-26T17:59:32.488Z,42.82
2023-03-26T18:02:07.485Z,43.40
2023-03-26T18:04:40.608Z,43.22
2023-03-26T18:07:37.569Z,42.93
2023-03-26T18:10:28.916Z,42.94
2023-03-26T18:13:25.452Z,42.62
2023-03-26T18:16:11.197Z,42.58
2023-03-26T18:18:49.401Z,42.41
2023-03-26T18:21:27.726Z,42.36
2023-03-26T18:23:59.538Z,42.23
2023-03-26T18:26:36.937Z,42.20
2023-03-26T18:29:19.675Z,42.05
2023-03-26T18:32:00.719Z,41.83
2023-03-26T18:34:36.662Z,41.81
2023-03-26T18:37:18.632Z,41.53
2023-03-26T18:40:10.090Z,41.69
2023-03-26T18:42:46.413Z,41.65
2023-03-26T18:45:38.075Z,41.74
2023-03-26T18:48:17.987Z,41.44
2023-03-26T18:50:49.652Z,41.57
2023-03-26T18:53:23.274Z,41.60
2023-03-26T18:55:59.403Z,41.70
2023-03-26T18:58:31.531Z,41.56
2023-03-26T19:01:17.176Z,41.79
2023-03-26T19:03:58.114Z,41.89
2023-03-26T19:06:28.964Z,42.04
2023-03-26T19:09:01.523Z,41.83
2023-03-26T19:11:32.951Z,41.96
2023-03-26T19:14:09.388Z,42.05
2023-03-26T19:16:45.934Z,42.18
2023-03-26T19:19:25.241Z,41.88
2023-03-26T19:21:57.277Z,42.14
2023-03-26T19:24:30.113Z,42.47
2023-03-26T19:27:03.876Z,42.68
2023-03-26T19:29:36.764Z,42.89
2023-03-26T19:32:18.599Z,42.69
2023-03-26T19:34:51.525Z,43.06
2023-03-26T19:37:25.281Z,42.99
2023-03-26T19:39:58.645Z,43.11
2023-03-26T19:42:43.434Z,43.29
2023-03-26T19:45:19.503Z,43.46
2023-03-26T19:50:57.768Z,43.81
2023-03-26T19:51:18.448Z,43.61
2023-03-26T19:53:34.930Z,43.75
2023-03-26T19:56:18.186Z,43.80
2023-03-26T19:58:48.718Z,43.82
2023-03-26T20:01:34.688Z,43.88
2023-03-26T20:04:07.641Z,44.10
2023-03-26T20:06:44.332Z,44.14
2023-03-26T20:09:21.504Z,44.05
2023-03-26T20:11:52.707Z,44.42
2023-03-26T20:14:26.381Z,44.57
2023-03-26T20:16:56.975Z,44.80
2023-03-26T20:19:27.515Z,44.88
2023-03-26T20:22:00.591Z,44.88
2023-03-26T20:24:31.310Z,44.88
2023-03-26T20:27:04.366Z,45.13
2023-03-26T20:29:37.207Z,45.16
2023-03-26T20:32:09.710Z,45.10
2023-03-26T20:34:52.102Z,45.40
2023-03-26T20:37:31.696Z,45.22
2023-03-26T20:40:09.315Z,45.12
2023-03-26T20:42:39.534Z,45.18
2023-03-26T20:45:19.614Z,45.34
2023-03-26T20:47:51.824Z,45.01
2023-03-26T20:50:24.739Z,44.88
2023-03-26T20:52:57.382Z,45.16
2023-03-26T20:55:28.497Z,45.10
2023-03-26T20:57:58.758Z,45.06
2023-03-26T21:00:32.524Z,45.06
2023-03-26T21:03:02.703Z,44.81
2023-03-26T21:05:32.954Z,45.18
2023-03-26T21:08:30.342Z,45.07
2023-03-26T21:11:03.630Z,44.94
2023-03-26T21:13:41.147Z,44.86
2023-03-26T21:16:14.697Z,44.77
2023-03-26T21:18:45.509Z,44.63
2023-03-26T21:21:28.692Z,44.75
2023-03-26T21:24:12.908Z,44.47
2023-03-26T21:26:47.587Z,44.23
2023-03-26T21:29:18.211Z,44.16
2023-03-26T21:31:48.895Z,44.03
2023-03-26T21:34:20.172Z,43.96
2023-03-26T21:36:50.979Z,44.29
2023-03-26T21:39:27.944Z,44.38
2023-03-26T21:42:05.276Z,44.51
2023-03-26T21:44:37.071Z,44.22
2023-03-26T21:47:09.823Z,44.15
2023-03-26T21:49:40.940Z,44.42
2023-03-26T21:52:18.819Z,44.48
2023-03-26T21:54:52.358Z,44.33
2023-03-26T21:57:45.522Z,44.64
2023-03-26T22:00:18.719Z,44.48
2023-03-26T22:03:02.690Z,44.58
2023-03-26T22:05:42.159Z,44.62
2023-03-26T22:08:23.028Z,44.55
2023-03-26T22:10:55.993Z,45.01
2023-03-26T22:13:26.153Z,44.87
2023-03-26T22:15:56.966Z,45.20
2023-03-26T22:18:30.351Z,45.23
2023-03-26T22:21:00.979Z,45.23
2023-03-26T22:23:34.346Z,45.26
2023-03-26T22:26:10.370Z,45.06
2023-03-26T22:28:40.360Z,45.16
2023-03-26T22:31:13.141Z,45.30
2023-03-26T22:33:43.432Z,45.31
2023-03-26T22:36:22.397Z,45.20
2023-03-26T22:38:56.874Z,45.48
2023-03-26T22:41:29.807Z,45.59
2023-03-26T22:44:12.937Z,45.55
2023-03-26T22:46:51.713Z,45.80
2023-03-26T22:49:21.864Z,45.97
2023-03-26T22:51:53.010Z,46.21
2023-03-26T22:54:23.193Z,46.13
2023-03-26T22:56:56.210Z,46.57
2023-03-26T22:59:26.548Z,46.20
2023-03-26T23:01:57.019Z,46.20
2023-03-26T23:04:31.286Z,46.42
2023-03-26T23:07:01.964Z,46.30
2023-03-26T23:09:32.362Z,46.69
2023-03-26T23:12:05.080Z,46.71
2023-03-26T23:14:36.384Z,46.54
2023-03-26T23:17:06.581Z,46.61
2023-03-26T23:19:37.229Z,46.64
2023-03-26T23:22:07.256Z,46.79
2023-03-26T23:24:37.986Z,46.70
2023-03-26T23:27:10.926Z,46.93
2023-03-26T23:29:42.300Z,46.57
2023-03-26T23:32:23.415Z,46.61
2023-03-26T23:34:55.933Z,46.88
2023-03-26T23:37:26.938Z,47.18
2023-03-26T23:39:58.832Z,47.27
2023-03-26T23:42:31.408Z,47.42
2023-03-26T23:45:01.403Z,47.47
2023-03-26T23:47:34.591Z,47.88
2023-03-26T23:50:05.379Z,48.17
2023-03-26T23:52:37.596Z,48.21
2023-03-26T23:55:08.802Z,48.02
2023-03-26T23:57:41.588Z,48.21
